Time;durP1;ratioP1;P1;durP2;ratioP2;P2;SDS_P1;SDS_P2;PMS_P1;PMS_P2;Temp;Humidity;BMP_temperature;BMP_pressure;BME280_temperature;BME280_humidity;BME280_pressure;Samples;Min_cycle;Max_cycle;Signal;HPM_P1;HPM_P2
2024/01/12 00:00:19;;;;;;;3.15;2.78;;;4.00;72.00;;;;;;5118724;27;20038;-76
2024/01/12 00:02:44;;;;;;;3.65;2.85;;;4.10;72.10;;;;;;5117846;27;20028;-77
2024/01/12 00:05:10;;;;;;;3.13;2.83;;;4.10;72.10;;;;;;5109819;28;20168;-77
2024/01/12 00:07:36;;;;;;;2.90;2.60;;;4.00;72.00;;;;;;5116947;27;20027;-76
2024/01/12 00:10:01;;;;;;;2.90;2.60;;;4.00;72.00;;;;;;5130040;27;20023;-77
2024/01/12 00:12:27;;;;;;;2.75;2.55;;;4.00;72.00;;;;;;5123016;27;20019;-77
2024/01/12 00:14:53;;;;;;;2.80;2.60;;;4.00;72.00;;;;;;5117987;27;20110;-76
2024/01/12 00:17:19;;;;;;;2.80;2.60;;;4.00;71.90;;;;;;5118215;27;20485;-79
2024/01/12 00:19:47;;;;;;;2.90;2.60;;;4.00;71.90;;;;;;5128154;27;20035;-77
2024/01/12 00:22:13;;;;;;;2.80;2.50;;;3.90;71.80;;;;;;5129946;27;20028;-76
2024/01/12 00:24:38;;;;;;;2.80;2.60;;;3.90;71.80;;;;;;5124619;27;20027;-78
2024/01/12 00:27:04;;;;;;;3.45;2.78;;;3.90;71.80;;;;;;5111633;27;20483;-78
2024/01/12 00:29:30;;;;;;;2.80;2.53;;;3.90;71.70;;;;;;5083031;28;20039;-77
2024/01/12 00:31:56;;;;;;;2.85;2.55;;;3.90;71.70;;;;;;5094456;28;20063;-77
2024/01/12 00:34:23;;;;;;;2.88;2.67;;;3.90;71.70;;;;;;5124081;27;20453;-77
2024/01/12 00:36:49;;;;;;;2.63;2.42;;;3.90;71.70;;;;;;5116592;28;20051;-79
2024/01/12 00:39:17;;;;;;;2.70;2.50;;;3.80;71.60;;;;;;5120433;27;20473;-78
2024/01/12 00:41:42;;;;;;;2.78;2.53;;;3.80;72.10;;;;;;5109055;28;20028;-76
2024/01/12 00:44:08;;;;;;;3.75;2.35;;;3.80;71.50;;;;;;5109034;27;20031;-78
2024/01/12 00:46:34;;;;;;;2.50;2.30;;;3.80;71.50;;;;;;5110441;28;20039;-77
2024/01/12 00:49:00;;;;;;;2.65;2.45;;;3.80;71.40;;;;;;5132225;27;20039;-77
2024/01/12 00:51:26;;;;;;;2.30;2.20;;;3.80;71.40;;;;;;5106136;27;20035;-78
2024/01/12 00:53:52;;;;;;;2.83;2.53;;;3.80;71.40;;;;;;5134782;27;20023;-77
2024/01/12 00:56:17;;;;;;;2.50;2.30;;;3.70;71.30;;;;;;5120267;27;20046;-77
2024/01/12 00:58:43;;;;;;;2.22;2.13;;;3.70;71.30;;;;;;5108377;28;20038;-77
2024/01/12 01:01:09;;;;;;;2.40;2.20;;;3.70;71.30;;;;;;5115728;28;20043;-77
2024/01/12 01:03:36;;;;;;;2.30;2.10;;;3.70;71.30;;;;;;5124311;27;20027;-77
2024/01/12 01:06:02;;;;;;;2.40;2.20;;;3.70;71.30;;;;;;5124500;27;20043;-76
2024/01/12 01:08:28;;;;;;;2.35;2.20;;;3.70;71.30;;;;;;5127656;27;20449;-77
2024/01/12 01:10:53;;;;;;;2.20;2.10;;;3.60;71.20;;;;;;5102025;28;20476;-78
2024/01/12 01:13:19;;;;;;;2.28;2.17;;;3.60;71.20;;;;;;5118548;27;20027;-76
2024/01/12 01:15:45;;;;;;;2.38;2.17;;;3.60;71.20;;;;;;5103199;27;20030;-76
2024/01/12 01:18:11;;;;;;;2.42;2.22;;;3.60;71.20;;;;;;5122614;27;20034;-78
2024/01/12 01:20:37;;;;;;;2.47;2.30;;;3.60;71.20;;;;;;5135647;27;20472;-78
2024/01/12 01:23:03;;;;;;;2.28;2.08;;;3.60;71.20;;;;;;5134934;27;20035;-77
2024/01/12 01:25:29;;;;;;;2.50;2.30;;;3.60;71.20;;;;;;5082727;28;20151;-77
2024/01/12 01:27:55;;;;;;;2.40;2.20;;;3.50;71.10;;;;;;5119484;27;20036;-77
2024/01/12 01:30:21;;;;;;;2.47;2.28;;;3.50;71.10;;;;;;5128156;27;20034;-78
2024/01/12 01:32:48;;;;;;;2.28;2.10;;;3.50;71.10;;;;;;5115758;27;20019;-77
2024/01/12 01:35:15;;;;;;;2.40;2.20;;;3.50;71.10;;;;;;5129990;27;20055;-78
2024/01/12 01:37:40;;;;;;;2.28;2.15;;;3.50;71.10;;;;;;5122685;27;20054;-77
2024/01/12 01:40:07;;;;;;;2.53;2.33;;;3.50;71.10;;;;;;5105676;27;20028;-77
2024/01/12 01:42:33;;;;;;;2.20;2.10;;;3.50;71.10;;;;;;5099882;28;20466;-77
2024/01/12 01:44:59;;;;;;;2.30;2.20;;;3.40;71.00;;;;;;5117856;27;20058;-76
2024/01/12 01:47:26;;;;;;;2.10;2.00;;;3.40;70.90;;;;;;5120079;27;20049;-77
2024/01/12 01:49:52;;;;;;;2.30;2.20;;;3.40;70.90;;;;;;5105009;28;20461;-77
2024/01/12 01:52:25;;;;;;;2.10;2.00;;;3.40;70.90;;;;;;5101604;28;20084;-76
2024/01/12 01:54:52;;;;;;;2.85;2.40;;;3.40;70.90;;;;;;5108939;28;20027;-76
2024/01/12 01:57:19;;;;;;;2.50;2.30;;;3.40;71.40;;;;;;5096410;27;20039;-77
2024/01/12 01:59:45;;;;;;;2.20;2.10;;;3.40;70.90;;;;;;5107205;28;20076;-76
2024/01/12 02:02:11;;;;;;;2.40;2.30;;;3.40;70.80;;;;;;5096190;28;20028;-78
2024/01/12 02:04:37;;;;;;;2.42;2.22;;;3.40;71.40;;;;;;5097409;28;20039;-75
2024/01/12 02:07:04;;;;;;;2.10;2.00;;;3.40;70.80;;;;;;5125830;27;20469;-76
2024/01/12 02:09:31;;;;;;;2.20;2.10;;;3.40;70.70;;;;;;5111151;28;20047;-77
2024/01/12 02:11:57;;;;;;;2.20;2.10;;;3.40;70.70;;;;;;5122053;27;20514;-76
2024/01/12 02:14:23;;;;;;;2.47;2.28;;;3.40;70.70;;;;;;5133979;27;20027;-77
2024/01/12 02:16:49;;;;;;;2.30;2.20;;;3.30;70.70;;;;;;5118457;28;20031;-75
2024/01/12 02:19:14;;;;;;;2.20;2.10;;;3.30;70.70;;;;;;5103928;28;20023;-77
2024/01/12 02:21:40;;;;;;;2.67;2.10;;;3.30;70.60;;;;;;5113934;28;20024;-77
2024/01/12 02:24:08;;;;;;;2.25;2.15;;;3.30;70.60;;;;;;5105076;28;20554;-77
2024/01/12 02:26:34;;;;;;;2.38;2.20;;;3.30;70.60;;;;;;5122394;27;20458;-76
2024/01/12 02:29:02;;;;;;;2.20;2.10;;;3.30;70.60;;;;;;5129357;28;20031;-77
2024/01/12 02:31:29;;;;;;;2.20;2.10;;;3.30;70.60;;;;;;5075594;28;20434;-77
2024/01/12 02:33:55;;;;;;;2.20;2.00;;;3.30;70.60;;;;;;5107421;28;20105;-77
2024/01/12 02:36:20;;;;;;;2.30;2.20;;;3.30;70.60;;;;;;5102108;27;20031;-77
2024/01/12 02:38:49;;;;;;;2.13;2.03;;;3.30;70.60;;;;;;5134454;27;20046;-76
2024/01/12 02:41:15;;;;;;;2.10;2.00;;;3.20;70.50;;;;;;5109737;28;20461;-76
2024/01/12 02:43:41;;;;;;;2.30;2.20;;;3.20;70.60;;;;;;5125432;27;20030;-77
2024/01/12 02:46:06;;;;;;;2.30;2.10;;;3.20;70.60;;;;;;5107678;27;20431;-76
2024/01/12 02:48:32;;;;;;;2.20;2.10;;;3.20;70.60;;;;;;5108136;28;20035;-77
2024/01/12 02:50:58;;;;;;;2.65;2.45;;;3.20;70.60;;;;;;5114611;27;20038;-77
2024/01/12 02:53:23;;;;;;;2.17;2.05;;;3.20;70.50;;;;;;5132954;27;20019;-77
2024/01/12 02:55:49;;;;;;;2.15;2.05;;;3.20;70.60;;;;;;5117876;28;20059;-78
2024/01/12 02:58:15;;;;;;;2.30;2.20;;;3.20;70.60;;;;;;5114545;27;20031;-77
2024/01/12 03:00:40;;;;;;;2.10;2.00;;;3.20;70.60;;;;;;5120179;27;20119;-77
2024/01/12 03:03:06;;;;;;;2.22;2.13;;;3.10;70.50;;;;;;5132509;27;20028;-77
2024/01/12 03:05:32;;;;;;;2.13;2.00;;;3.10;70.50;;;;;;5114812;27;20092;-76
2024/01/12 03:07:58;;;;;;;2.30;2.20;;;3.10;70.50;;;;;;5138448;27;20031;-76
2024/01/12 03:10:23;;;;;;;2.40;2.20;;;3.10;70.50;;;;;;5130208;27;20381;-76
2024/01/12 03:12:49;;;;;;;2.20;2.10;;;3.10;70.50;;;;;;5109675;27;20035;-76
2024/01/12 03:15:15;;;;;;;2.30;2.20;;;3.10;70.50;;;;;;5129493;27;20035;-76
2024/01/12 03:17:41;;;;;;;2.10;2.00;;;3.10;70.40;;;;;;5104714;28;20028;-77
2024/01/12 03:20:08;;;;;;;2.25;2.15;;;3.10;70.40;;;;;;5134903;27;20094;-76
2024/01/12 03:22:34;;;;;;;2.10;2.00;;;3.10;70.40;;;;;;5133306;27;20453;-77
2024/01/12 03:25:00;;;;;;;2.00;1.90;;;3.00;70.40;;;;;;5111028;27;20452;-77
2024/01/12 03:27:27;;;;;;;2.38;2.20;;;3.00;70.40;;;;;;5113779;28;20081;-76
2024/01/12 03:29:53;;;;;;;2.20;2.10;;;3.00;70.40;;;;;;5119461;27;20038;-76
2024/01/12 03:32:20;;;;;;;2.20;2.10;;;3.00;70.40;;;;;;5118594;27;20426;-77
2024/01/12 03:34:46;;;;;;;2.13;2.03;;;3.00;70.40;;;;;;5105146;27;20072;-76
2024/01/12 03:37:12;;;;;;;2.10;2.00;;;3.00;70.40;;;;;;5109502;28;20419;-77
2024/01/12 03:39:37;;;;;;;2.10;2.00;;;3.00;70.40;;;;;;5098730;27;20043;-75
2024/01/12 03:42:03;;;;;;;2.15;2.05;;;3.00;70.40;;;;;;5110769;27;20487;-76
2024/01/12 03:44:29;;;;;;;1.98;1.92;;;3.00;70.30;;;;;;5135758;27;20544;-77
2024/01/12 03:46:54;;;;;;;2.20;2.10;;;3.00;70.30;;;;;;5116334;27;20362;-76
2024/01/12 03:49:22;;;;;;;2.20;2.10;;;2.90;70.20;;;;;;5126784;27;20027;-77
2024/01/12 03:51:53;;;;;;;2.28;2.17;;;2.90;70.20;;;;;;5136530;27;20438;-77
2024/01/12 03:54:23;;;;;;;2.42;2.28;;;2.90;70.30;;;;;;5116689;27;20369;-75
2024/01/12 03:56:49;;;;;;;2.10;2.00;;;2.90;70.20;;;;;;5116447;27;20027;-76
2024/01/12 03:59:14;;;;;;;2.30;2.10;;;2.90;70.20;;;;;;5128265;27;20087;-76
2024/01/12 04:01:46;;;;;;;2.10;2.00;;;2.90;70.20;;;;;;5126063;27;20029;-75
2024/01/12 04:04:12;;;;;;;2.10;2.00;;;2.90;70.20;;;;;;5130724;27;20540;-76
2024/01/12 04:06:42;;;;;;;2.10;2.00;;;2.90;70.20;;;;;;5099286;27;20662;-76
2024/01/12 04:09:12;;;;;;;2.13;2.03;;;2.90;70.20;;;;;;5109119;28;20035;-76
2024/01/12 04:11:38;;;;;;;2.50;2.30;;;2.80;70.10;;;;;;5098494;28;20116;-76
2024/01/12 04:14:04;;;;;;;2.20;2.10;;;2.90;70.10;;;;;;5111765;27;20437;-77
2024/01/12 04:16:30;;;;;;;2.10;2.00;;;2.80;70.10;;;;;;5136405;27;20115;-76
2024/01/12 04:18:56;;;;;;;2.28;2.17;;;2.80;70.00;;;;;;5135150;27;20039;-77
2024/01/12 04:21:22;;;;;;;2.28;2.17;;;2.80;70.10;;;;;;5121576;27;20023;-77
2024/01/12 04:23:48;;;;;;;2.20;2.10;;;2.80;70.00;;;;;;5121528;27;20091;-76
2024/01/12 04:26:13;;;;;;;2.05;1.95;;;2.80;70.00;;;;;;5134710;27;20061;-78
2024/01/12 04:28:39;;;;;;;2.50;2.30;;;2.80;70.00;;;;;;5125263;27;20023;-77
2024/01/12 04:31:05;;;;;;;2.35;2.15;;;2.80;70.00;;;;;;5134450;27;20031;-77
2024/01/12 04:33:32;;;;;;;2.10;2.00;;;2.80;70.00;;;;;;5126615;27;20111;-77
2024/01/12 04:35:58;;;;;;;2.33;2.20;;;2.80;70.00;;;;;;5116895;27;20378;-78
2024/01/12 04:38:25;;;;;;;2.60;2.40;;;2.70;69.90;;;;;;5127988;27;20027;-77
2024/01/12 04:40:51;;;;;;;2.20;2.10;;;2.80;70.00;;;;;;5115569;28;20035;-76
2024/01/12 04:43:16;;;;;;;2.20;2.10;;;2.70;69.90;;;;;;5098431;28;20031;-77
2024/01/12 04:45:42;;;;;;;2.25;2.15;;;2.70;69.90;;;;;;5130907;27;20030;-79
2024/01/12 04:48:08;;;;;;;2.20;2.10;;;2.70;69.90;;;;;;5111614;28;20093;-77
2024/01/12 04:50:33;;;;;;;2.20;2.10;;;2.80;69.90;;;;;;5116414;27;20030;-77
2024/01/12 04:52:59;;;;;;;2.20;2.10;;;2.70;69.90;;;;;;5109802;28;20028;-77
2024/01/12 04:55:25;;;;;;;2.10;2.00;;;2.70;69.80;;;;;;5108287;27;20031;-78
2024/01/12 04:57:51;;;;;;;2.20;2.10;;;2.70;69.80;;;;;;5105412;27;20027;-75
2024/01/12 05:00:17;;;;;;;2.40;2.20;;;2.70;69.80;;;;;;5131221;27;20032;-76
2024/01/12 05:02:43;;;;;;;2.33;2.13;;;2.70;69.80;;;;;;5127024;27;20027;-76
2024/01/12 05:05:09;;;;;;;2.20;2.10;;;2.70;69.80;;;;;;5110240;27;20120;-77
2024/01/12 05:07:35;;;;;;;2.42;2.22;;;2.70;69.70;;;;;;5114653;27;20023;-77
2024/01/12 05:10:01;;;;;;;2.10;2.00;;;2.70;69.80;;;;;;5125565;27;20019;-77
2024/01/12 05:12:27;;;;;;;2.67;2.47;;;2.70;69.70;;;;;;5135829;27;20440;-77
2024/01/12 05:14:52;;;;;;;2.30;2.20;;;2.70;69.80;;;;;;5100771;28;20107;-77
2024/01/12 05:17:19;;;;;;;2.70;2.50;;;2.70;69.70;;;;;;5126314;27;20042;-78
2024/01/12 05:19:44;;;;;;;2.30;2.20;;;2.70;69.70;;;;;;5132131;27;20045;-77
2024/01/12 05:22:10;;;;;;;2.38;2.28;;;2.70;69.70;;;;;;5108338;28;20396;-77
2024/01/12 05:24:36;;;;;;;2.45;2.25;;;2.70;69.70;;;;;;5097892;28;20089;-76
2024/01/12 05:27:01;;;;;;;2.15;2.05;;;2.70;69.70;;;;;;5096571;28;20019;-77
2024/01/12 05:29:27;;;;;;;2.35;2.20;;;2.60;69.60;;;;;;5118156;27;20036;-77
2024/01/12 05:31:53;;;;;;;2.30;2.20;;;2.60;69.60;;;;;;5106170;28;20020;-77
2024/01/12 05:34:18;;;;;;;2.22;2.13;;;2.60;69.60;;;;;;5115617;27;20087;-76
2024/01/12 05:36:44;;;;;;;2.60;2.40;;;2.60;69.60;;;;;;5129882;27;20035;-77
2024/01/12 05:39:10;;;;;;;2.22;2.13;;;2.60;69.60;;;;;;5109559;28;20043;-78
2024/01/12 05:41:36;;;;;;;2.53;2.33;;;2.60;69.60;;;;;;5105003;27;20532;-77
2024/01/12 05:44:02;;;;;;;2.70;2.50;;;2.60;69.60;;;;;;5117134;27;20027;-77
2024/01/12 05:46:27;;;;;;;2.60;2.40;;;2.60;69.60;;;;;;5100447;28;20480;-77
2024/01/12 05:49:23;;;;;;;2.50;2.30;;;2.60;69.50;;;;;;5100342;27;20079;-82
2024/01/12 05:51:48;;;;;;;2.50;2.38;;;2.60;69.40;;;;;;5092535;27;20428;-77
2024/01/12 05:54:14;;;;;;;2.42;2.22;;;2.60;69.50;;;;;;5101525;28;20038;-77
2024/01/12 05:56:40;;;;;;;2.30;2.10;;;2.60;69.50;;;;;;5116896;27;20493;-77
2024/01/12 05:59:06;;;;;;;2.22;2.13;;;2.60;69.40;;;;;;5108624;28;20138;-78
2024/01/12 06:01:32;;;;;;;2.58;2.38;;;2.60;69.40;;;;;;5095907;28;20055;-77
2024/01/12 06:03:58;;;;;;;2.30;2.20;;;2.60;69.40;;;;;;5122030;27;20072;-77
2024/01/12 06:06:24;;;;;;;2.92;2.63;;;2.60;69.40;;;;;;5116551;27;20485;-79
2024/01/12 06:08:50;;;;;;;2.50;2.30;;;2.60;69.40;;;;;;5116361;28;20061;-77
2024/01/12 06:11:16;;;;;;;2.60;2.40;;;2.60;69.40;;;;;;5116275;27;20031;-77
2024/01/12 06:13:42;;;;;;;2.60;2.40;;;2.60;69.30;;;;;;5134716;27;20034;-78
2024/01/12 06:16:08;;;;;;;2.67;2.47;;;2.60;69.30;;;;;;5108633;28;20107;-77
2024/01/12 06:18:34;;;;;;;2.80;2.60;;;2.60;69.30;;;;;;5126147;28;20027;-78
2024/01/12 06:20:59;;;;;;;2.72;2.53;;;2.60;69.20;;;;;;5123151;28;20114;-78
2024/01/12 06:23:25;;;;;;;2.80;2.60;;;2.60;69.20;;;;;;5112160;28;20030;-77
2024/01/12 06:25:51;;;;;;;2.63;2.42;;;2.60;69.20;;;;;;5097460;28;20488;-76
2024/01/12 06:28:16;;;;;;;2.90;2.70;;;2.60;69.10;;;;;;5114083;28;20032;-77
2024/01/12 06:30:42;;;;;;;2.67;2.47;;;2.60;69.10;;;;;;5118611;28;20019;-78
2024/01/12 06:33:08;;;;;;;2.75;2.55;;;2.60;69.10;;;;;;5103197;28;20481;-77
2024/01/12 06:35:35;;;;;;;2.85;2.65;;;2.70;69.10;;;;;;5134873;27;20026;-79
2024/01/12 06:38:00;;;;;;;3.25;2.95;;;2.70;69.10;;;;;;5105694;28;20028;-78
2024/01/12 06:40:26;;;;;;;2.70;2.50;;;2.70;69.00;;;;;;5096007;28;20511;-77
2024/01/12 06:42:53;;;;;;;2.80;2.60;;;2.70;69.00;;;;;;5114104;28;20454;-76
2024/01/12 06:45:19;;;;;;;2.80;2.60;;;2.70;69.00;;;;;;5114811;28;20028;-76
2024/01/12 06:47:45;;;;;;;2.60;2.40;;;2.70;69.00;;;;;;5114299;28;20033;-78
2024/01/12 06:50:10;;;;;;;2.70;2.50;;;2.70;68.90;;;;;;5130611;28;20027;-78
2024/01/12 06:52:37;;;;;;;2.85;2.65;;;2.70;69.00;;;;;;5132252;28;20042;-78
2024/01/12 06:55:04;;;;;;;3.08;2.80;;;2.70;68.90;;;;;;5118315;28;20446;-76
2024/01/12 06:57:29;;;;;;;2.97;2.72;;;2.70;68.80;;;;;;5125797;27;20049;-77
2024/01/12 06:59:55;;;;;;;2.88;2.67;;;2.70;68.80;;;;;;5113761;28;20084;-77
2024/01/12 07:02:21;;;;;;;2.90;2.67;;;2.70;68.80;;;;;;5116385;28;20031;-77
2024/01/12 07:04:46;;;;;;;2.92;2.63;;;2.70;68.70;;;;;;5113564;28;20127;-77
2024/01/12 07:07:12;;;;;;;3.15;2.85;;;2.80;68.80;;;;;;5115960;28;20031;-78
2024/01/12 07:09:39;;;;;;;3.08;2.85;;;2.80;68.80;;;;;;5112426;28;20042;-77
2024/01/12 07:12:05;;;;;;;3.38;2.63;;;2.70;68.70;;;;;;5131151;27;20038;-80
2024/01/12 07:14:31;;;;;;;2.70;2.50;;;2.80;68.70;;;;;;5133931;27;20031;-79
2024/01/12 07:16:56;;;;;;;3.20;2.88;;;2.80;68.70;;;;;;5114524;28;20023;-77
2024/01/12 07:19:22;;;;;;;3.03;2.72;;;2.80;68.60;;;;;;5115500;28;20497;-76
2024/01/12 07:21:48;;;;;;;2.78;2.58;;;2.80;68.60;;;;;;5113907;28;20037;-80
2024/01/12 07:24:13;;;;;;;2.90;2.60;;;2.80;68.60;;;;;;5137887;27;20061;-77
2024/01/12 07:26:39;;;;;;;2.90;2.60;;;2.80;68.50;;;;;;5119436;27;20028;-78
2024/01/12 07:29:05;;;;;;;2.70;2.50;;;2.80;68.50;;;;;;5119418;27;20031;-80
2024/01/12 07:31:33;;;;;;;3.28;2.95;;;2.80;68.50;;;;;;5137663;27;20020;-76
2024/01/12 07:33:58;;;;;;;2.92;2.63;;;2.80;68.90;;;;;;5135360;27;20479;-76
2024/01/12 07:36:26;;;;;;;3.92;2.80;;;2.80;68.40;;;;;;5136878;27;20027;-76
2024/01/12 07:38:52;;;;;;;3.08;2.72;;;2.90;68.40;;;;;;5137552;27;20031;-76
2024/01/12 07:41:18;;;;;;;3.08;2.70;;;2.90;68.40;;;;;;5109272;27;20030;-75
2024/01/12 07:43:43;;;;;;;3.20;2.88;;;2.90;68.40;;;;;;5127045;27;20027;-76
2024/01/12 07:46:14;;;;;;;3.45;2.80;;;2.90;68.30;;;;;;5097257;28;20462;-75
2024/01/12 07:48:40;;;;;;;4.38;3.10;;;2.90;68.20;;;;;;5116385;28;20473;-70
2024/01/12 07:51:06;;;;;;;4.18;3.20;;;2.90;68.20;;;;;;5098083;28;20030;-72
2024/01/12 07:53:31;;;;;;;3.10;2.90;;;2.90;68.20;;;;;;5127407;27;20475;-75
2024/01/12 07:55:57;;;;;;;3.25;2.95;;;2.90;68.20;;;;;;5110435;27;20020;-75
2024/01/12 07:58:23;;;;;;;3.38;3.05;;;2.90;68.10;;;;;;5126632;27;20027;-72
2024/01/12 08:00:49;;;;;;;3.10;2.80;;;2.90;68.10;;;;;;5112590;27;20054;-73
2024/01/12 08:03:14;;;;;;;3.22;2.85;;;2.90;68.00;;;;;;5133416;27;20084;-72
2024/01/12 08:05:40;;;;;;;3.35;3.05;;;2.90;68.00;;;;;;5118272;27;20051;-74
2024/01/12 08:08:06;;;;;;;3.47;3.05;;;3.00;68.10;;;;;;5132014;27;20430;-76
2024/01/12 08:10:31;;;;;;;4.35;3.17;;;3.00;68.00;;;;;;5125347;27;20433;-75
2024/01/12 08:12:57;;;;;;;3.10;2.80;;;3.00;67.90;;;;;;5114694;28;20024;-77
2024/01/12 08:15:24;;;;;;;3.00;2.70;;;3.00;68.00;;;;;;5105785;28;20128;-73
2024/01/12 08:17:50;;;;;;;3.35;3.03;;;3.00;67.90;;;;;;5124155;27;20035;-73
2024/01/12 08:20:16;;;;;;;4.47;3.55;;;3.00;67.90;;;;;;5114787;28;20030;-74
2024/01/12 08:22:41;;;;;;;3.20;2.90;;;3.00;67.80;;;;;;5115669;27;20031;-72
2024/01/12 08:25:07;;;;;;;3.15;2.85;;;3.00;67.80;;;;;;5114532;28;20016;-75
2024/01/12 08:27:33;;;;;;;3.42;2.92;;;3.00;67.70;;;;;;5115530;27;20057;-73
2024/01/12 08:29:59;;;;;;;2.90;2.70;;;3.00;67.70;;;;;;5116707;27;20031;-73
2024/01/12 08:32:24;;;;;;;3.13;2.80;;;3.00;67.70;;;;;;5113447;27;20534;-72
2024/01/12 08:34:50;;;;;;;2.83;2.63;;;3.00;67.70;;;;;;5114931;27;20073;-73
2024/01/12 08:37:15;;;;;;;3.13;2.80;;;3.00;67.60;;;;;;5096751;28;20019;-73
2024/01/12 08:39:41;;;;;;;2.80;2.60;;;3.00;67.60;;;;;;5112704;27;20503;-73
2024/01/12 08:42:07;;;;;;;2.72;2.53;;;3.00;67.60;;;;;;5096811;28;20118;-72
2024/01/12 08:44:32;;;;;;;3.28;2.97;;;3.10;67.60;;;;;;5114977;27;20102;-72
2024/01/12 08:46:58;;;;;;;3.15;2.85;;;3.10;67.60;;;;;;5096566;28;20054;-72
2024/01/12 08:49:24;;;;;;;3.00;2.70;;;3.10;67.50;;;;;;5096794;28;20506;-74
2024/01/12 08:51:51;;;;;;;3.10;2.80;;;3.10;67.50;;;;;;5098512;28;20119;-73
2024/01/12 08:54:17;;;;;;;3.13;2.85;;;3.10;67.50;;;;;;5116270;27;20047;-74
2024/01/12 08:56:43;;;;;;;3.25;2.90;;;3.10;67.40;;;;;;5113774;28;20020;-73
2024/01/12 08:59:09;;;;;;;2.85;2.65;;;3.10;67.40;;;;;;5115946;27;20465;-73
2024/01/12 09:01:35;;;;;;;3.25;2.95;;;3.20;67.40;;;;;;5116167;27;20397;-73
2024/01/12 09:04:01;;;;;;;3.22;2.92;;;3.20;67.40;;;;;;5102338;27;20058;-74
2024/01/12 09:06:30;;;;;;;3.17;2.88;;;3.20;67.30;;;;;;5126357;27;20488;-72
2024/01/12 09:08:56;;;;;;;3.55;2.90;;;3.30;67.30;;;;;;5115928;27;20024;-71
2024/01/12 09:11:22;;;;;;;3.13;2.72;;;3.30;67.20;;;;;;5101339;27;20862;-73
2024/01/12 09:13:48;;;;;;;3.13;2.83;;;3.30;67.10;;;;;;5115564;27;20114;-72
2024/01/12 09:16:14;;;;;;;2.85;2.65;;;3.30;67.10;;;;;;5115962;27;20027;-72
2024/01/12 09:18:42;;;;;;;2.85;2.65;;;3.40;67.10;;;;;;5116051;27;20023;-73
2024/01/12 09:21:08;;;;;;;3.33;2.90;;;3.50;67.10;;;;;;5116095;27;20027;-72
2024/01/12 09:23:33;;;;;;;2.90;2.67;;;3.50;66.90;;;;;;5115196;27;20020;-71
2024/01/12 09:25:59;;;;;;;2.88;2.60;;;3.50;66.90;;;;;;5075339;28;20032;-71
2024/01/12 09:28:25;;;;;;;3.53;3.10;;;3.60;66.90;;;;;;5090569;27;20071;-74
2024/01/12 09:30:50;;;;;;;3.05;2.75;;;3.60;66.70;;;;;;5113993;28;20024;-71
2024/01/12 09:33:16;;;;;;;3.08;2.78;;;3.70;66.60;;;;;;5109117;27;20019;-73
2024/01/12 09:35:42;;;;;;;2.90;2.70;;;3.70;66.60;;;;;;5135134;27;20031;-73
2024/01/12 09:38:07;;;;;;;3.40;2.90;;;3.80;66.60;;;;;;5122772;27;20457;-73
2024/01/12 09:40:33;;;;;;;3.15;2.85;;;3.80;66.50;;;;;;5114633;27;20027;-71
2024/01/12 09:43:10;;;;;;;2.85;2.65;;;3.90;66.50;;;;;;5115984;27;20064;-74
2024/01/12 09:45:41;;;;;;;3.78;2.78;;;3.90;66.30;;;;;;5115900;27;20023;-71
2024/01/12 09:48:08;;;;;;;3.08;2.83;;;4.00;66.30;;;;;;5112052;27;20024;-74
2024/01/12 09:50:34;;;;;;;2.72;2.53;;;4.00;66.10;;;;;;5100537;28;20024;-78
2024/01/12 09:53:00;;;;;;;2.90;2.70;;;4.00;66.00;;;;;;5121911;27;20436;-75
2024/01/12 09:55:25;;;;;;;2.90;2.67;;;4.00;66.00;;;;;;5104646;28;20036;-76
2024/01/12 09:57:52;;;;;;;3.08;2.78;;;3.90;65.90;;;;;;5105557;28;20023;-73
2024/01/12 10:00:19;;;;;;;2.78;2.58;;;3.90;65.90;;;;;;5120246;27;20051;-71
2024/01/12 10:02:45;;;;;;;2.78;2.58;;;3.90;65.90;;;;;;5116572;27;20023;-72
2024/01/12 10:05:11;;;;;;;3.72;2.70;;;3.90;66.00;;;;;;5132107;27;20346;-72
2024/01/12 10:07:37;;;;;;;2.97;2.67;;;3.90;66.00;;;;;;5130290;27;20566;-71
2024/01/12 10:10:05;;;;;;;2.92;2.70;;;4.00;66.00;;;;;;5104740;28;20030;-72
2024/01/12 10:12:31;;;;;;;3.13;2.83;;;4.00;66.00;;;;;;5116330;28;20033;-71
2024/01/12 10:15:10;;;;;;;3.05;2.70;;;4.00;65.90;;;;;;5112587;28;20053;-72
2024/01/12 10:17:36;;;;;;;2.97;2.60;;;4.10;65.90;;;;;;5114850;28;20485;-74
2024/01/12 10:20:03;;;;;;;2.90;2.65;;;4.10;65.80;;;;;;5121688;28;20032;-72
2024/01/12 10:22:30;;;;;;;2.90;2.63;;;4.10;65.80;;;;;;5117182;28;20031;-74
2024/01/12 10:25:01;;;;;;;2.65;2.45;;;4.20;65.70;;;;;;5115589;28;20362;-72
2024/01/12 10:27:27;;;;;;;3.13;2.72;;;4.20;66.30;;;;;;5101044;28;20027;-71
2024/01/12 10:29:53;;;;;;;3.00;2.70;;;4.20;65.60;;;;;;5110150;28;20038;-73
2024/01/12 10:32:19;;;;;;;3.03;2.72;;;4.20;65.50;;;;;;5109456;28;20421;-72
2024/01/12 10:34:49;;;;;;;3.60;3.30;;;4.20;65.50;;;;;;5103148;28;20020;-70
2024/01/12 10:37:16;;;;;;;3.22;2.80;;;4.30;65.60;;;;;;5113157;28;20035;-73
2024/01/12 10:39:47;;;;;;;3.10;2.83;;;4.30;65.50;;;;;;5104487;28;20476;-71
2024/01/12 10:42:13;;;;;;;3.10;2.75;;;4.30;65.50;;;;;;5082333;28;20115;-71
2024/01/12 10:44:41;;;;;;;3.17;2.88;;;4.40;65.40;;;;;;5101521;28;20046;-72
2024/01/12 10:47:15;;;;;;;3.20;2.90;;;4.40;65.30;;;;;;5110577;28;20411;-75
2024/01/12 10:49:50;;;;;;;3.17;2.88;;;4.40;65.30;;;;;;5126006;27;20031;-77
2024/01/12 10:52:19;;;;;;;2.90;2.70;;;4.40;65.20;;;;;;5109646;28;20405;-76
2024/01/12 10:55:05;;;;;;;3.10;2.80;;;4.40;65.20;;;;;;5125682;27;20031;-74
2024/01/12 10:57:32;;;;;;;2.83;2.63;;;4.40;65.10;;;;;;5131944;27;20023;-74
2024/01/12 10:59:59;;;;;;;3.00;2.70;;;4.40;65.00;;;;;;5134549;27;20030;-76
2024/01/12 11:02:25;;;;;;;3.45;3.15;;;4.50;66.60;;;;;;5137256;27;20432;-76
2024/01/12 11:04:52;;;;;;;3.75;2.85;;;4.60;66.80;;;;;;5120392;27;20028;-75
2024/01/12 11:07:19;;;;;;;3.00;2.70;;;4.70;66.60;;;;;;5100227;28;20030;-75
2024/01/12 11:09:44;;;;;;;2.70;2.50;;;4.80;66.60;;;;;;5123392;27;20023;-73
2024/01/12 11:12:21;;;;;;;3.25;2.95;;;4.80;66.50;;;;;;5131621;27;20019;-74
2024/01/12 11:14:46;;;;;;;3.40;2.88;;;4.80;66.40;;;;;;5109773;28;20392;-74
2024/01/12 11:17:12;;;;;;;4.07;3.17;;;4.90;66.60;;;;;;5122756;27;20026;-74
2024/01/12 11:19:38;;;;;;;2.92;2.60;;;5.10;73.50;;;;;;5131954;27;20166;-76
2024/01/12 11:22:08;;;;;;;3.53;2.80;;;5.50;72.30;;;;;;5115900;27;20030;-75
2024/01/12 11:24:35;;;;;;;3.90;3.05;;;5.80;72.10;;;;;;5125716;27;20015;-74
2024/01/12 11:27:02;;;;;;;3.72;3.42;;;6.20;72.50;;;;;;5098481;27;20465;-72
2024/01/12 11:29:34;;;;;;;3.65;3.22;;;6.50;71.30;;;;;;5119010;27;20032;-75
2024/01/12 11:32:04;;;;;;;3.45;3.10;;;6.60;70.20;;;;;;5115250;27;20026;-75
2024/01/12 11:34:38;;;;;;;2.88;2.58;;;6.70;70.10;;;;;;5101998;28;20028;-69
2024/01/12 11:37:08;;;;;;;28.33;17.65;;;6.80;71.10;;;;;;5120440;27;20169;-70
2024/01/12 11:39:38;;;;;;;6.25;4.47;;;7.00;75.50;;;;;;5117839;27;20039;-75
2024/01/12 11:42:07;;;;;;;6.93;4.00;;;7.50;76.80;;;;;;5099493;27;20051;-72
2024/01/12 11:44:34;;;;;;;4.53;3.97;;;7.80;73.90;;;;;;5097856;27;20043;-72
2024/01/12 11:47:00;;;;;;;6.25;4.28;;;8.10;72.10;;;;;;5102086;27;20027;-71
2024/01/12 11:49:26;;;;;;;4.97;4.00;;;8.20;71.10;;;;;;5117505;27;20085;-73
2024/01/12 11:52:02;;;;;;;5.93;4.10;;;8.10;70.50;;;;;;5115776;27;20024;-72
2024/01/12 11:54:27;;;;;;;4.78;3.63;;;8.10;70.30;;;;;;5115304;27;20020;-74
2024/01/12 11:56:58;;;;;;;5.07;3.50;;;7.90;69.90;;;;;;5117030;27;20096;-72
2024/01/12 11:59:24;;;;;;;4.97;3.30;;;7.80;69.90;;;;;;5112883;27;20089;-74
2024/01/12 12:01:50;;;;;;;3.33;2.78;;;7.70;69.80;;;;;;5096813;28;20023;-72
2024/01/12 12:04:18;;;;;;;3.83;2.95;;;7.50;69.80;;;;;;5095146;28;20034;-72
2024/01/12 12:06:47;;;;;;;4.10;3.13;;;7.30;70.40;;;;;;5127220;27;20429;-72
2024/01/12 12:09:14;;;;;;;2.88;2.65;;;7.50;76.80;;;;;;5135739;27;20027;-75
2024/01/12 12:11:40;;;;;;;3.03;2.72;;;7.70;74.50;;;;;;5099015;28;20366;-74
2024/01/12 12:14:05;;;;;;;3.17;2.85;;;7.90;73.10;;;;;;5098897;27;20032;-75
2024/01/12 12:16:32;;;;;;;3.75;2.65;;;7.90;72.20;;;;;;5116386;27;20553;-74
2024/01/12 12:18:58;;;;;;;3.83;3.40;;;7.90;71.70;;;;;;5114493;28;20089;-75
2024/01/12 12:21:24;;;;;;;4.03;2.70;;;7.70;71.30;;;;;;5103236;28;20418;-75
2024/01/12 12:23:50;;;;;;;4.70;2.70;;;7.60;71.10;;;;;;5116009;28;20032;-75
2024/01/12 12:26:16;;;;;;;3.25;2.70;;;7.50;71.00;;;;;;5098014;28;20023;-74
2024/01/12 12:28:45;;;;;;;3.05;2.67;;;7.30;70.90;;;;;;5097561;28;20035;-74
2024/01/12 12:31:11;;;;;;;3.00;2.70;;;7.20;71.00;;;;;;5115656;28;20423;-75
2024/01/12 12:33:36;;;;;;;3.22;2.53;;;7.00;70.90;;;;;;5101237;28;20461;-74
2024/01/12 12:36:07;;;;;;;3.50;2.70;;;6.80;70.80;;;;;;5115784;28;20144;-75
2024/01/12 12:38:36;;;;;;;2.85;2.65;;;6.70;70.90;;;;;;5114659;28;20079;-75
2024/01/12 12:41:01;;;;;;;2.80;2.60;;;6.60;70.90;;;;;;5116808;27;20027;-76
2024/01/12 12:43:27;;;;;;;3.35;2.50;;;6.50;70.90;;;;;;5099388;28;20337;-70
2024/01/12 12:45:54;;;;;;;2.80;2.60;;;6.30;70.80;;;;;;5100649;28;20019;-76
2024/01/12 12:48:23;;;;;;;2.70;2.50;;;6.20;70.80;;;;;;5098570;28;20378;-78
2024/01/12 12:50:48;;;;;;;4.95;2.80;;;6.10;70.80;;;;;;5105430;28;20024;-76
2024/01/12 12:53:14;;;;;;;3.22;2.70;;;6.00;70.80;;;;;;5095200;28;20028;-76